sensor_id;sensor_type;location;lat;lon;timestamp;temperature;humidity
19110;DHT22;9687;50.836;12.060;2023-03-01T00:00:09;3.90;66.70
19110;DHT22;9687;50.836;12.060;2023-03-01T00:02:36;3.90;66.80
19110;DHT22;9687;50.836;12.060;2023-03-01T00:05:03;3.90;66.90
19110;DHT22;9687;50.836;12.060;2023-03-01T00:07:31;3.90;67.00
19110;DHT22;9687;50.836;12.060;2023-03-01T00:09:58;3.80;66.90
19110;DHT22;9687;50.836;12.060;2023-03-01T00:12:25;3.80;66.90
19110;DHT22;9687;50.836;12.060;2023-03-01T00:14:55;3.80;66.90
19110;DHT22;9687;50.836;12.060;2023-03-01T00:17:22;3.80;67.00
19110;DHT22;9687;50.836;12.060;2023-03-01T00:19:49;3.80;67.00
19110;DHT22;9687;50.836;12.060;2023-03-01T00:22:16;3.70;67.10
19110;DHT22;9687;50.836;12.060;2023-03-01T00:24:44;3.70;67.20
19110;DHT22;9687;50.836;12.060;2023-03-01T00:27:11;3.70;67.20
19110;DHT22;9687;50.836;12.060;2023-03-01T00:29:38;3.70;67.30
19110;DHT22;9687;50.836;12.060;2023-03-01T00:32:07;3.70;67.30
19110;DHT22;9687;50.836;12.060;2023-03-01T00:34:34;3.60;67.30
19110;DHT22;9687;50.836;12.060;2023-03-01T00:37:02;3.60;67.30
19110;DHT22;9687;50.836;12.060;2023-03-01T00:39:31;3.60;67.30
19110;DHT22;9687;50.836;12.060;2023-03-01T00:41:58;3.60;67.40
19110;DHT22;9687;50.836;12.060;2023-03-01T00:44:26;3.60;67.50
19110;DHT22;9687;50.836;12.060;2023-03-01T00:46:54;3.60;67.60
19110;DHT22;9687;50.836;12.060;2023-03-01T00:49:23;3.50;67.60
19110;DHT22;9687;50.836;12.060;2023-03-01T00:51:53;3.50;67.60
19110;DHT22;9687;50.836;12.060;2023-03-01T00:54:20;3.50;67.70
19110;DHT22;9687;50.836;12.060;2023-03-01T00:56:47;3.50;67.80
19110;DHT22;9687;50.836;12.060;2023-03-01T00:59:15;3.40;67.80
19110;DHT22;9687;50.836;12.060;2023-03-01T01:01:42;3.40;67.90
19110;DHT22;9687;50.836;12.060;2023-03-01T01:04:10;3.40;68.00
19110;DHT22;9687;50.836;12.060;2023-03-01T01:06:40;3.40;68.10
19110;DHT22;9687;50.836;12.060;2023-03-01T01:09:08;3.40;68.00
19110;DHT22;9687;50.836;12.060;2023-03-01T01:11:42;3.30;68.00
19110;DHT22;9687;50.836;12.060;2023-03-01T01:14:10;3.30;68.10
19110;DHT22;9687;50.836;12.060;2023-03-01T01:16:38;3.30;68.20
19110;DHT22;9687;50.836;12.060;2023-03-01T01:19:05;3.20;68.30
19110;DHT22;9687;50.836;12.060;2023-03-01T01:21:32;3.10;68.30
19110;DHT22;9687;50.836;12.060;2023-03-01T01:24:02;3.10;68.40
19110;DHT22;9687;50.836;12.060;2023-03-01T01:26:30;3.10;68.50
19110;DHT22;9687;50.836;12.060;2023-03-01T01:28:58;3.10;68.50
19110;DHT22;9687;50.836;12.060;2023-03-01T01:31:25;3.10;68.60
19110;DHT22;9687;50.836;12.060;2023-03-01T01:33:54;3.10;68.60
19110;DHT22;9687;50.836;12.060;2023-03-01T01:36:21;3.10;68.70
19110;DHT22;9687;50.836;12.060;2023-03-01T01:38:49;3.10;68.70
19110;DHT22;9687;50.836;12.060;2023-03-01T01:41:18;3.20;68.80
19110;DHT22;9687;50.836;12.060;2023-03-01T01:43:46;3.20;68.70
19110;DHT22;9687;50.836;12.060;2023-03-01T01:46:16;3.10;68.00
19110;DHT22;9687;50.836;12.060;2023-03-01T01:48:45;3.10;68.60
19110;DHT22;9687;50.836;12.060;2023-03-01T01:51:15;3.10;68.60
19110;DHT22;9687;50.836;12.060;2023-03-01T01:53:44;3.10;68.70
19110;DHT22;9687;50.836;12.060;2023-03-01T01:56:12;3.10;68.60
19110;DHT22;9687;50.836;12.060;2023-03-01T01:58:42;3.10;68.70
19110;DHT22;9687;50.836;12.060;2023-03-01T02:01:10;3.10;68.60
19110;DHT22;9687;50.836;12.060;2023-03-01T02:03:38;3.10;68.60
19110;DHT22;9687;50.836;12.060;2023-03-01T02:06:11;3.10;68.70
19110;DHT22;9687;50.836;12.060;2023-03-01T02:08:40;3.00;68.60
19110;DHT22;9687;50.836;12.060;2023-03-01T02:11:08;3.00;68.60
19110;DHT22;9687;50.836;12.060;2023-03-01T02:13:37;3.00;68.60
19110;DHT22;9687;50.836;12.060;2023-03-01T02:16:06;3.00;68.50
19110;DHT22;9687;50.836;12.060;2023-03-01T02:18:35;3.00;68.40
19110;DHT22;9687;50.836;12.060;2023-03-01T02:21:05;2.90;68.30
19110;DHT22;9687;50.836;12.060;2023-03-01T02:23:35;2.90;68.30
19110;DHT22;9687;50.836;12.060;2023-03-01T02:26:05;2.80;68.20
19110;DHT22;9687;50.836;12.060;2023-03-01T02:28:35;2.80;68.20
19110;DHT22;9687;50.836;12.060;2023-03-01T02:31:03;2.70;68.20
19110;DHT22;9687;50.836;12.060;2023-03-01T02:33:49;2.70;68.30
19110;DHT22;9687;50.836;12.060;2023-03-01T02:36:17;2.70;68.50
19110;DHT22;9687;50.836;12.060;2023-03-01T02:38:44;2.60;68.50
19110;DHT22;9687;50.836;12.060;2023-03-01T02:41:13;2.60;68.70
19110;DHT22;9687;50.836;12.060;2023-03-01T02:43:43;2.60;68.70
19110;DHT22;9687;50.836;12.060;2023-03-01T02:46:14;2.60;68.80
19110;DHT22;9687;50.836;12.060;2023-03-01T02:48:42;2.60;68.80
19110;DHT22;9687;50.836;12.060;2023-03-01T02:51:11;2.60;68.70
19110;DHT22;9687;50.836;12.060;2023-03-01T02:53:46;2.50;68.70
19110;DHT22;9687;50.836;12.060;2023-03-01T02:56:17;2.50;68.80
19110;DHT22;9687;50.836;12.060;2023-03-01T02:58:46;2.50;68.80
19110;DHT22;9687;50.836;12.060;2023-03-01T03:01:17;2.60;68.90
19110;DHT22;9687;50.836;12.060;2023-03-01T03:03:45;2.50;68.90
19110;DHT22;9687;50.836;12.060;2023-03-01T03:06:12;2.60;69.10
19110;DHT22;9687;50.836;12.060;2023-03-01T03:08:39;2.50;69.00
19110;DHT22;9687;50.836;12.060;2023-03-01T03:11:07;2.50;69.00
19110;DHT22;9687;50.836;12.060;2023-03-01T03:13:34;2.40;68.90
19110;DHT22;9687;50.836;12.060;2023-03-01T03:16:03;2.40;68.90
19110;DHT22;9687;50.836;12.060;2023-03-01T03:18:31;2.40;69.10
19110;DHT22;9687;50.836;12.060;2023-03-01T03:20:58;2.40;69.20
19110;DHT22;9687;50.836;12.060;2023-03-01T03:23:25;2.40;69.30
19110;DHT22;9687;50.836;12.060;2023-03-01T03:25:53;2.40;69.30
19110;DHT22;9687;50.836;12.060;2023-03-01T03:28:20;2.40;69.30
19110;DHT22;9687;50.836;12.060;2023-03-01T03:30:47;2.40;69.30
19110;DHT22;9687;50.836;12.060;2023-03-01T03:33:17;2.40;69.20
19110;DHT22;9687;50.836;12.060;2023-03-01T03:35:45;2.40;69.20
19110;DHT22;9687;50.836;12.060;2023-03-01T03:38:13;2.40;69.20
19110;DHT22;9687;50.836;12.060;2023-03-01T03:40:43;2.30;69.20
19110;DHT22;9687;50.836;12.060;2023-03-01T03:43:12;2.30;69.20
19110;DHT22;9687;50.836;12.060;2023-03-01T03:45:40;2.30;69.30
19110;DHT22;9687;50.836;12.060;2023-03-01T03:48:08;2.30;69.30
19110;DHT22;9687;50.836;12.060;2023-03-01T03:50:37;2.30;69.30
19110;DHT22;9687;50.836;12.060;2023-03-01T03:53:06;2.20;69.20
19110;DHT22;9687;50.836;12.060;2023-03-01T03:55:34;2.20;69.30
19110;DHT22;9687;50.836;12.060;2023-03-01T03:58:05;2.20;69.40
19110;DHT22;9687;50.836;12.060;2023-03-01T04:00:34;2.20;69.50
19110;DHT22;9687;50.836;12.060;2023-03-01T04:03:01;2.20;69.50
19110;DHT22;9687;50.836;12.060;2023-03-01T04:05:28;2.10;69.50
19110;DHT22;9687;50.836;12.060;2023-03-01T04:07:57;2.10;69.50
19110;DHT22;9687;50.836;12.060;2023-03-01T04:10:33;2.10;69.50
19110;DHT22;9687;50.836;12.060;2023-03-01T04:13:01;2.10;69.60
19110;DHT22;9687;50.836;12.060;2023-03-01T04:15:28;2.10;69.60
19110;DHT22;9687;50.836;12.060;2023-03-01T04:17:56;2.10;69.70
19110;DHT22;9687;50.836;12.060;2023-03-01T04:20:26;2.10;69.70
19110;DHT22;9687;50.836;12.060;2023-03-01T04:22:58;2.10;69.70
19110;DHT22;9687;50.836;12.060;2023-03-01T04:25:34;2.10;69.70
19110;DHT22;9687;50.836;12.060;2023-03-01T04:28:02;2.10;69.70
19110;DHT22;9687;50.836;12.060;2023-03-01T04:30:29;2.10;69.80
19110;DHT22;9687;50.836;12.060;2023-03-01T04:33:02;2.10;69.90
19110;DHT22;9687;50.836;12.060;2023-03-01T04:35:29;2.10;70.00
19110;DHT22;9687;50.836;12.060;2023-03-01T04:37:58;2.10;70.00
19110;DHT22;9687;50.836;12.060;2023-03-01T04:40:26;2.10;70.00
19110;DHT22;9687;50.836;12.060;2023-03-01T04:42:53;2.10;69.90
19110;DHT22;9687;50.836;12.060;2023-03-01T04:45:21;2.10;69.90
19110;DHT22;9687;50.836;12.060;2023-03-01T04:47:48;2.00;69.70
19110;DHT22;9687;50.836;12.060;2023-03-01T04:50:18;2.00;69.70
19110;DHT22;9687;50.836;12.060;2023-03-01T04:52:47;1.90;69.50
19110;DHT22;9687;50.836;12.060;2023-03-01T04:55:16;1.90;69.50
19110;DHT22;9687;50.836;12.060;2023-03-01T04:57:43;1.80;69.50
19110;DHT22;9687;50.836;12.060;2023-03-01T05:00:11;1.80;69.70
19110;DHT22;9687;50.836;12.060;2023-03-01T05:02:47;1.70;69.60
19110;DHT22;9687;50.836;12.060;2023-03-01T05:05:22;1.70;69.70
19110;DHT22;9687;50.836;12.060;2023-03-01T05:07:52;1.60;69.80
19110;DHT22;9687;50.836;12.060;2023-03-01T05:10:21;1.60;69.90
19110;DHT22;9687;50.836;12.060;2023-03-01T05:12:49;1.60;70.00
19110;DHT22;9687;50.836;12.060;2023-03-01T05:15:18;1.60;69.90
19110;DHT22;9687;50.836;12.060;2023-03-01T05:17:47;1.60;69.90
19110;DHT22;9687;50.836;12.060;2023-03-01T05:20:15;1.50;69.90
19110;DHT22;9687;50.836;12.060;2023-03-01T05:22:42;1.50;69.90
19110;DHT22;9687;50.836;12.060;2023-03-01T05:25:09;1.40;70.10
19110;DHT22;9687;50.836;12.060;2023-03-01T05:27:41;1.30;70.30
19110;DHT22;9687;50.836;12.060;2023-03-01T05:30:09;1.30;70.50
19110;DHT22;9687;50.836;12.060;2023-03-01T05:32:41;1.20;70.50
19110;DHT22;9687;50.836;12.060;2023-03-01T05:35:09;1.20;70.20
19110;DHT22;9687;50.836;12.060;2023-03-01T05:37:40;1.10;70.90
19110;DHT22;9687;50.836;12.060;2023-03-01T05:40:09;1.00;71.00
19110;DHT22;9687;50.836;12.060;2023-03-01T05:42:43;1.00;71.20
19110;DHT22;9687;50.836;12.060;2023-03-01T05:45:11;1.00;71.30
19110;DHT22;9687;50.836;12.060;2023-03-01T05:47:39;1.00;71.30
19110;DHT22;9687;50.836;12.060;2023-03-01T05:50:13;1.00;71.30
19110;DHT22;9687;50.836;12.060;2023-03-01T05:52:43;1.00;71.20
19110;DHT22;9687;50.836;12.060;2023-03-01T05:55:11;1.00;71.20
19110;DHT22;9687;50.836;12.060;2023-03-01T05:57:38;1.00;70.60
19110;DHT22;9687;50.836;12.060;2023-03-01T06:00:11;1.00;71.20
19110;DHT22;9687;50.836;12.060;2023-03-01T06:02:39;1.10;71.20
19110;DHT22;9687;50.836;12.060;2023-03-01T06:05:07;1.10;71.20
19110;DHT22;9687;50.836;12.060;2023-03-01T06:07:35;1.10;71.10
19110;DHT22;9687;50.836;12.060;2023-03-01T06:10:03;1.10;71.10
19110;DHT22;9687;50.836;12.060;2023-03-01T06:12:32;1.10;71.00
19110;DHT22;9687;50.836;12.060;2023-03-01T06:15:00;1.10;71.00
19110;DHT22;9687;50.836;12.060;2023-03-01T06:17:30;1.20;71.10
19110;DHT22;9687;50.836;12.060;2023-03-01T06:19:58;1.20;71.00
19110;DHT22;9687;50.836;12.060;2023-03-01T06:22:26;1.20;70.30
19110;DHT22;9687;50.836;12.060;2023-03-01T06:24:54;1.20;70.20
19110;DHT22;9687;50.836;12.060;2023-03-01T06:27:21;1.20;70.80
19110;DHT22;9687;50.836;12.060;2023-03-01T06:29:48;1.20;70.80
19110;DHT22;9687;50.836;12.060;2023-03-01T06:32:15;1.20;70.70
19110;DHT22;9687;50.836;12.060;2023-03-01T06:34:44;1.20;70.70
19110;DHT22;9687;50.836;12.060;2023-03-01T06:37:12;1.30;70.70
19110;DHT22;9687;50.836;12.060;2023-03-01T06:39:39;1.30;70.10
19110;DHT22;9687;50.836;12.060;2023-03-01T06:42:07;1.30;70.80
19110;DHT22;9687;50.836;12.060;2023-03-01T06:44:35;1.30;70.80
19110;DHT22;9687;50.836;12.060;2023-03-01T06:47:03;1.30;70.80
19110;DHT22;9687;50.836;12.060;2023-03-01T06:49:30;1.30;70.90
19110;DHT22;9687;50.836;12.060;2023-03-01T06:51:59;1.40;71.10
19110;DHT22;9687;50.836;12.060;2023-03-01T06:54:26;1.40;71.20
19110;DHT22;9687;50.836;12.060;2023-03-01T06:56:54;1.40;71.30
19110;DHT22;9687;50.836;12.060;2023-03-01T06:59:21;1.40;71.30
19110;DHT22;9687;50.836;12.060;2023-03-01T07:01:49;1.50;71.40
19110;DHT22;9687;50.836;12.060;2023-03-01T07:04:16;1.50;71.50
19110;DHT22;9687;50.836;12.060;2023-03-01T07:06:44;1.50;71.60
19110;DHT22;9687;50.836;12.060;2023-03-01T07:09:12;1.60;71.70
19110;DHT22;9687;50.836;12.060;2023-03-01T07:11:40;1.60;71.70
19110;DHT22;9687;50.836;12.060;2023-03-01T07:14:07;1.70;71.90
19110;DHT22;9687;50.836;12.060;2023-03-01T07:16:34;1.70;72.00
19110;DHT22;9687;50.836;12.060;2023-03-01T07:19:01;1.80;72.20
19110;DHT22;9687;50.836;12.060;2023-03-01T07:21:29;2.00;72.20
19110;DHT22;9687;50.836;12.060;2023-03-01T07:23:57;2.20;71.60
19110;DHT22;9687;50.836;12.060;2023-03-01T07:26:27;2.30;72.20
19110;DHT22;9687;50.836;12.060;2023-03-01T07:28:54;2.50;72.00
19110;DHT22;9687;50.836;12.060;2023-03-01T07:31:22;2.80;72.00
19110;DHT22;9687;50.836;12.060;2023-03-01T07:33:50;3.00;71.80
19110;DHT22;9687;50.836;12.060;2023-03-01T07:36:18;3.20;71.50
19110;DHT22;9687;50.836;12.060;2023-03-01T07:38:46;3.40;70.50
19110;DHT22;9687;50.836;12.060;2023-03-01T07:41:13;3.60;71.70
19110;DHT22;9687;50.836;12.060;2023-03-01T07:43:42;3.80;70.50
19110;DHT22;9687;50.836;12.060;2023-03-01T07:46:10;4.00;70.50
19110;DHT22;9687;50.836;12.060;2023-03-01T07:48:38;4.20;70.20
19110;DHT22;9687;50.836;12.060;2023-03-01T07:51:09;4.40;69.80
19110;DHT22;9687;50.836;12.060;2023-03-01T07:53:37;4.50;69.40
19110;DHT22;9687;50.836;12.060;2023-03-01T07:56:05;4.60;69.20
19110;DHT22;9687;50.836;12.060;2023-03-01T07:58:33;4.80;69.00
19110;DHT22;9687;50.836;12.060;2023-03-01T08:01:03;5.00;69.60
19110;DHT22;9687;50.836;12.060;2023-03-01T08:03:31;5.10;68.60
19110;DHT22;9687;50.836;12.060;2023-03-01T08:05:58;5.30;68.40
19110;DHT22;9687;50.836;12.060;2023-03-01T08:08:26;5.50;68.30
19110;DHT22;9687;50.836;12.060;2023-03-01T08:10:55;5.70;68.00
19110;DHT22;9687;50.836;12.060;2023-03-01T08:13:23;5.90;68.20
19110;DHT22;9687;50.836;12.060;2023-03-01T08:15:50;6.10;67.00
19110;DHT22;9687;50.836;12.060;2023-03-01T08:18:22;6.30;66.50
19110;DHT22;9687;50.836;12.060;2023-03-01T08:20:51;6.50;65.50
19110;DHT22;9687;50.836;12.060;2023-03-01T08:23:18;6.70;65.60
19110;DHT22;9687;50.836;12.060;2023-03-01T08:25:45;6.80;65.40
19110;DHT22;9687;50.836;12.060;2023-03-01T08:28:13;7.10;65.10
19110;DHT22;9687;50.836;12.060;2023-03-01T08:30:40;7.30;64.40
19110;DHT22;9687;50.836;12.060;2023-03-01T08:33:07;7.50;64.20
19110;DHT22;9687;50.836;12.060;2023-03-01T08:35:36;7.60;63.60
19110;DHT22;9687;50.836;12.060;2023-03-01T08:38:05;7.80;63.20
19110;DHT22;9687;50.836;12.060;2023-03-01T08:40:34;8.00;63.20
19110;DHT22;9687;50.836;12.060;2023-03-01T08:43:03;8.20;62.60
19110;DHT22;9687;50.836;12.060;2023-03-01T08:45:30;8.30;62.30
19110;DHT22;9687;50.836;12.060;2023-03-01T08:47:57;8.40;62.10
19110;DHT22;9687;50.836;12.060;2023-03-01T08:50:25;8.50;61.80
19110;DHT22;9687;50.836;12.060;2023-03-01T08:52:54;8.70;60.90
19110;DHT22;9687;50.836;12.060;2023-03-01T08:55:22;8.80;60.80
19110;DHT22;9687;50.836;12.060;2023-03-01T08:57:50;8.90;60.70
19110;DHT22;9687;50.836;12.060;2023-03-01T09:00:17;9.00;60.50
19110;DHT22;9687;50.836;12.060;2023-03-01T09:02:45;9.10;60.20
19110;DHT22;9687;50.836;12.060;2023-03-01T09:05:13;9.20;60.10
19110;DHT22;9687;50.836;12.060;2023-03-01T09:07:40;9.20;60.00
19110;DHT22;9687;50.836;12.060;2023-03-01T09:10:10;9.40;59.90
19110;DHT22;9687;50.836;12.060;2023-03-01T09:12:38;9.40;59.60
19110;DHT22;9687;50.836;12.060;2023-03-01T09:15:06;9.60;59.40
19110;DHT22;9687;50.836;12.060;2023-03-01T09:17:33;9.60;59.20
19110;DHT22;9687;50.836;12.060;2023-03-01T09:20:13;9.70;58.70
19110;DHT22;9687;50.836;12.060;2023-03-01T09:22:41;9.70;58.40
19110;DHT22;9687;50.836;12.060;2023-03-01T09:25:11;9.70;58.20
19110;DHT22;9687;50.836;12.060;2023-03-01T09:27:38;9.80;58.30
19110;DHT22;9687;50.836;12.060;2023-03-01T09:30:06;9.90;58.20
19110;DHT22;9687;50.836;12.060;2023-03-01T09:32:34;9.90;57.40
19110;DHT22;9687;50.836;12.060;2023-03-01T09:35:02;9.90;57.60
19110;DHT22;9687;50.836;12.060;2023-03-01T09:37:31;10.00;56.60
19110;DHT22;9687;50.836;12.060;2023-03-01T09:39:58;10.10;56.60
19110;DHT22;9687;50.836;12.060;2023-03-01T09:42:28;10.10;56.40
19110;DHT22;9687;50.836;12.060;2023-03-01T09:44:58;10.20;56.20
19110;DHT22;9687;50.836;12.060;2023-03-01T09:47:27;10.30;56.40
19110;DHT22;9687;50.836;12.060;2023-03-01T09:50:01;10.40;56.30
19110;DHT22;9687;50.836;12.060;2023-03-01T09:52:30;10.40;56.00
19110;DHT22;9687;50.836;12.060;2023-03-01T09:55:00;10.50;56.10
19110;DHT22;9687;50.836;12.060;2023-03-01T09:57:30;10.70;56.10
19110;DHT22;9687;50.836;12.060;2023-03-01T10:00:09;10.70;55.10
19110;DHT22;9687;50.836;12.060;2023-03-01T10:02:41;10.80;54.90
19110;DHT22;9687;50.836;12.060;2023-03-01T10:05:14;10.70;54.80
19110;DHT22;9687;50.836;12.060;2023-03-01T10:07:47;10.60;54.50
19110;DHT22;9687;50.836;12.060;2023-03-01T10:10:22;10.60;54.70
19110;DHT22;9687;50.836;12.060;2023-03-01T10:12:53;10.60;55.30
19110;DHT22;9687;50.836;12.060;2023-03-01T10:15:22;10.60;54.70
19110;DHT22;9687;50.836;12.060;2023-03-01T10:17:55;10.80;54.90
19110;DHT22;9687;50.836;12.060;2023-03-01T10:20:24;10.70;54.80
19110;DHT22;9687;50.836;12.060;2023-03-01T10:22:52;10.80;54.50
19110;DHT22;9687;50.836;12.060;2023-03-01T10:25:24;10.80;54.30
19110;DHT22;9687;50.836;12.060;2023-03-01T10:28:01;10.80;54.50
19110;DHT22;9687;50.836;12.060;2023-03-01T10:30:30;10.80;54.50
19110;DHT22;9687;50.836;12.060;2023-03-01T10:32:59;10.80;54.60
19110;DHT22;9687;50.836;12.060;2023-03-01T10:35:29;10.90;54.60
19110;DHT22;9687;50.836;12.060;2023-03-01T10:38:02;11.00;54.80
19110;DHT22;9687;50.836;12.060;2023-03-01T10:40:31;11.00;54.50
19110;DHT22;9687;50.836;12.060;2023-03-01T10:43:05;11.10;54.40
19110;DHT22;9687;50.836;12.060;2023-03-01T10:45:34;11.20;54.30
19110;DHT22;9687;50.836;12.060;2023-03-01T10:48:06;11.20;53.90
19110;DHT22;9687;50.836;12.060;2023-03-01T10:50:33;11.20;54.10
19110;DHT22;9687;50.836;12.060;2023-03-01T10:53:03;11.20;54.20
19110;DHT22;9687;50.836;12.060;2023-03-01T10:55:31;11.20;53.70
19110;DHT22;9687;50.836;12.060;2023-03-01T10:58:08;11.20;54.00
19110;DHT22;9687;50.836;12.060;2023-03-01T11:00:45;11.10;54.10
19110;DHT22;9687;50.836;12.060;2023-03-01T11:03:13;11.10;54.10
19110;DHT22;9687;50.836;12.060;2023-03-01T11:05:50;11.20;54.10
19110;DHT22;9687;50.836;12.060;2023-03-01T11:08:28;11.20;54.20
19110;DHT22;9687;50.836;12.060;2023-03-01T11:11:03;11.20;54.00
19110;DHT22;9687;50.836;12.060;2023-03-01T11:13:32;11.30;54.10
19110;DHT22;9687;50.836;12.060;2023-03-01T11:16:00;11.30;54.00
19110;DHT22;9687;50.836;12.060;2023-03-01T11:18:28;11.30;53.70
19110;DHT22;9687;50.836;12.060;2023-03-01T11:21:00;11.30;53.60
19110;DHT22;9687;50.836;12.060;2023-03-01T11:23:29;11.40;53.80
19110;DHT22;9687;50.836;12.060;2023-03-01T11:25:59;11.40;53.80
19110;DHT22;9687;50.836;12.060;2023-03-01T11:28:28;11.40;53.70
19110;DHT22;9687;50.836;12.060;2023-03-01T11:30:58;11.50;53.90
19110;DHT22;9687;50.836;12.060;2023-03-01T11:33:31;11.50;53.60
19110;DHT22;9687;50.836;12.060;2023-03-01T11:36:03;11.50;53.30
19110;DHT22;9687;50.836;12.060;2023-03-01T11:38:34;11.60;53.50
19110;DHT22;9687;50.836;12.060;2023-03-01T11:41:04;11.60;53.30
19110;DHT22;9687;50.836;12.060;2023-03-01T11:43:35;11.60;53.40
19110;DHT22;9687;50.836;12.060;2023-03-01T11:46:16;11.60;53.30
19110;DHT22;9687;50.836;12.060;2023-03-01T11:48:51;11.60;53.30
19110;DHT22;9687;50.836;12.060;2023-03-01T11:51:23;11.60;53.30
19110;DHT22;9687;50.836;12.060;2023-03-01T11:53:55;11.70;53.30
19110;DHT22;9687;50.836;12.060;2023-03-01T11:56:28;11.70;53.50
19110;DHT22;9687;50.836;12.060;2023-03-01T11:59:07;11.70;53.20
19110;DHT22;9687;50.836;12.060;2023-03-01T12:01:42;11.60;52.80
19110;DHT22;9687;50.836;12.060;2023-03-01T12:04:21;11.50;52.80
19110;DHT22;9687;50.836;12.060;2023-03-01T12:06:55;11.50;52.90
19110;DHT22;9687;50.836;12.060;2023-03-01T12:09:37;11.40;52.20
19110;DHT22;9687;50.836;12.060;2023-03-01T12:12:17;11.40;52.80
19110;DHT22;9687;50.836;12.060;2023-03-01T12:14:55;11.30;52.70
19110;DHT22;9687;50.836;12.060;2023-03-01T12:17:35;11.20;53.00
19110;DHT22;9687;50.836;12.060;2023-03-01T12:20:14;11.20;52.90
19110;DHT22;9687;50.836;12.060;2023-03-01T12:22:47;11.20;52.90
19110;DHT22;9687;50.836;12.060;2023-03-01T12:25:22;11.20;53.30
19110;DHT22;9687;50.836;12.060;2023-03-01T12:30:52;11.00;52.30
19110;DHT22;9687;50.836;12.060;2023-03-01T12:33:34;11.00;52.80
19110;DHT22;9687;50.836;12.060;2023-03-01T12:36:12;10.90;53.00
19110;DHT22;9687;50.836;12.060;2023-03-01T12:38:46;10.80;53.20
19110;DHT22;9687;50.836;12.060;2023-03-01T12:44:24;10.70;53.10
19110;DHT22;9687;50.836;12.060;2023-03-01T12:47:30;10.70;52.80
19110;DHT22;9687;50.836;12.060;2023-03-01T12:50:03;10.60;53.00
19110;DHT22;9687;50.836;12.060;2023-03-01T12:52:37;10.60;53.30
19110;DHT22;9687;50.836;12.060;2023-03-01T12:55:25;10.60;53.20
19110;DHT22;9687;50.836;12.060;2023-03-01T12:57:56;10.50;53.10
19110;DHT22;9687;50.836;12.060;2023-03-01T13:00:27;10.50;53.10
19110;DHT22;9687;50.836;12.060;2023-03-01T13:02:59;10.40;53.00
19110;DHT22;9687;50.836;12.060;2023-03-01T13:05:31;10.40;53.30
19110;DHT22;9687;50.836;12.060;2023-03-01T13:08:19;10.40;53.30
19110;DHT22;9687;50.836;12.060;2023-03-01T13:10:49;10.40;53.60
19110;DHT22;9687;50.836;12.060;2023-03-01T13:13:21;10.30;53.70
19110;DHT22;9687;50.836;12.060;2023-03-01T13:15:50;10.30;53.80
19110;DHT22;9687;50.836;12.060;2023-03-01T13:18:32;10.20;53.80
19110;DHT22;9687;50.836;12.060;2023-03-01T13:21:02;10.20;53.50
19110;DHT22;9687;50.836;12.060;2023-03-01T13:23:37;10.10;53.40
19110;DHT22;9687;50.836;12.060;2023-03-01T13:26:11;10.00;53.50
19110;DHT22;9687;50.836;12.060;2023-03-01T13:28:56;10.00;53.60
19110;DHT22;9687;50.836;12.060;2023-03-01T13:34:39;9.90;54.60
19110;DHT22;9687;50.836;12.060;2023-03-01T13:37:17;9.80;54.50
19110;DHT22;9687;50.836;12.060;2023-03-01T13:39:48;9.70;54.80
19110;DHT22;9687;50.836;12.060;2023-03-01T13:42:36;9.60;54.60
19110;DHT22;9687;50.836;12.060;2023-03-01T13:45:05;9.50;54.70
19110;DHT22;9687;50.836;12.060;2023-03-01T13:47:41;9.50;54.70
19110;DHT22;9687;50.836;12.060;2023-03-01T13:50:15;9.40;55.50
19110;DHT22;9687;50.836;12.060;2023-03-01T13:52:50;9.40;54.90
19110;DHT22;9687;50.836;12.060;2023-03-01T13:55:18;9.40;55.00
19110;DHT22;9687;50.836;12.060;2023-03-01T13:57:47;9.30;55.70
19110;DHT22;9687;50.836;12.060;2023-03-01T14:00:38;9.30;55.20
19110;DHT22;9687;50.836;12.060;2023-03-01T14:03:23;9.30;55.40
19110;DHT22;9687;50.836;12.060;2023-03-01T14:05:59;9.30;55.50
19110;DHT22;9687;50.836;12.060;2023-03-01T14:08:29;9.30;55.50
19110;DHT22;9687;50.836;12.060;2023-03-01T14:11:05;9.20;55.50
19110;DHT22;9687;50.836;12.060;2023-03-01T14:13:41;9.30;55.70
19110;DHT22;9687;50.836;12.060;2023-03-01T14:16:17;9.30;55.60
19110;DHT22;9687;50.836;12.060;2023-03-01T14:18:48;9.30;55.50
19110;DHT22;9687;50.836;12.060;2023-03-01T14:21:19;9.30;55.40
19110;DHT22;9687;50.836;12.060;2023-03-01T14:23:47;9.30;55.50
19110;DHT22;9687;50.836;12.060;2023-03-01T14:26:19;9.30;55.60
19110;DHT22;9687;50.836;12.060;2023-03-01T14:28:47;9.30;55.70
19110;DHT22;9687;50.836;12.060;2023-03-01T14:31:31;9.30;55.90
19110;DHT22;9687;50.836;12.060;2023-03-01T14:33:59;9.30;56.00
19110;DHT22;9687;50.836;12.060;2023-03-01T14:36:29;9.30;56.00
19110;DHT22;9687;50.836;12.060;2023-03-01T14:38:59;9.30;56.00
19110;DHT22;9687;50.836;12.060;2023-03-01T14:41:32;9.30;56.00
19110;DHT22;9687;50.836;12.060;2023-03-01T14:44:01;9.30;56.00
19110;DHT22;9687;50.836;12.060;2023-03-01T14:46:31;9.30;56.00
19110;DHT22;9687;50.836;12.060;2023-03-01T14:49:02;9.40;55.90
19110;DHT22;9687;50.836;12.060;2023-03-01T14:51:30;9.30;55.60
19110;DHT22;9687;50.836;12.060;2023-03-01T14:54:03;9.40;55.60
19110;DHT22;9687;50.836;12.060;2023-03-01T14:56:37;9.30;55.50
19110;DHT22;9687;50.836;12.060;2023-03-01T14:59:10;9.30;55.50
19110;DHT22;9687;50.836;12.060;2023-03-01T15:01:38;9.30;55.70
19110;DHT22;9687;50.836;12.060;2023-03-01T15:04:08;9.30;55.90
19110;DHT22;9687;50.836;12.060;2023-03-01T15:06:37;9.20;56.00
19110;DHT22;9687;50.836;12.060;2023-03-01T15:09:07;9.30;56.10
19110;DHT22;9687;50.836;12.060;2023-03-01T15:11:38;9.30;55.80
19110;DHT22;9687;50.836;12.060;2023-03-01T15:16:57;9.20;55.80
19110;DHT22;9687;50.836;12.060;2023-03-01T15:19:24;9.10;55.90
19110;DHT22;9687;50.836;12.060;2023-03-01T15:21:54;9.10;56.00
19110;DHT22;9687;50.836;12.060;2023-03-01T15:24:24;9.10;56.30
19110;DHT22;9687;50.836;12.060;2023-03-01T15:26:55;9.10;56.40
19110;DHT22;9687;50.836;12.060;2023-03-01T15:29:23;9.00;56.50
19110;DHT22;9687;50.836;12.060;2023-03-01T15:31:56;8.90;56.40
19110;DHT22;9687;50.836;12.060;2023-03-01T15:34:25;9.00;56.50
19110;DHT22;9687;50.836;12.060;2023-03-01T15:36:56;9.00;56.60
19110;DHT22;9687;50.836;12.060;2023-03-01T15:39:36;8.90;56.50
19110;DHT22;9687;50.836;12.060;2023-03-01T15:42:06;8.80;57.20
19110;DHT22;9687;50.836;12.060;2023-03-01T15:44:35;8.80;56.70
19110;DHT22;9687;50.836;12.060;2023-03-01T15:47:05;8.70;56.70
19110;DHT22;9687;50.836;12.060;2023-03-01T15:49:38;8.70;56.80
19110;DHT22;9687;50.836;12.060;2023-03-01T15:52:08;8.60;56.90
19110;DHT22;9687;50.836;12.060;2023-03-01T15:54:39;8.60;57.00
19110;DHT22;9687;50.836;12.060;2023-03-01T15:57:09;8.50;57.00
19110;DHT22;9687;50.836;12.060;2023-03-01T15:59:38;8.50;57.10
19110;DHT22;9687;50.836;12.060;2023-03-01T16:02:08;8.40;57.10
19110;DHT22;9687;50.836;12.060;2023-03-01T16:04:36;8.40;57.20
19110;DHT22;9687;50.836;12.060;2023-03-01T16:07:03;8.40;57.20
19110;DHT22;9687;50.836;12.060;2023-03-01T16:09:30;8.30;57.20
19110;DHT22;9687;50.836;12.060;2023-03-01T16:12:02;8.30;57.20